createdAt,value
2023-05-09T00:00:16.395Z,12.88
2023-05-09T00:00:45.400Z,12.88
2023-05-09T00:01:14.905Z,12.88
2023-05-09T00:01:48.076Z,12.88
2023-05-09T00:02:22.818Z,12.88
2023-05-09T00:02:44.810Z,12.88
2023-05-09T00:03:08.283Z,12.88
2023-05-09T00:03:41.407Z,12.77
2023-05-09T00:04:13.741Z,12.77
2023-05-09T00:04:45.412Z,12.77
2023-05-09T00:05:15.360Z,12.77
2023-05-09T00:05:48.900Z,12.77
2023-05-09T00:06:21.418Z,12.77
2023-05-09T00:06:44.745Z,12.77
2023-05-09T00:07:07.201Z,12.77
2023-05-09T00:07:41.480Z,12.77
2023-05-09T00:08:13.478Z,12.77
2023-05-09T00:08:46.843Z,12.77
2023-05-09T00:09:15.030Z,12.77
2023-05-09T00:09:46.870Z,12.77
2023-05-09T00:10:21.393Z,12.77
2023-05-09T00:10:44.110Z,12.77
2023-05-09T00:11:06.723Z,12.77
2023-05-09T00:11:41.505Z,12.77
2023-05-09T00:12:13.598Z,12.77
2023-05-09T00:12:41.745Z,12.77
2023-05-09T00:13:16.752Z,12.77
2023-05-09T00:13:49.744Z,12.77
2023-05-09T00:14:21.888Z,12.77
2023-05-09T00:14:45.106Z,12.77
2023-05-09T00:15:08.222Z,12.77
2023-05-09T00:15:41.595Z,12.77
2023-05-09T00:16:14.196Z,12.77
2023-05-09T00:16:45.728Z,12.77
2023-05-09T00:17:15.466Z,12.77
2023-05-09T00:17:46.974Z,12.77
2023-05-09T00:18:21.567Z,12.77
2023-05-09T00:18:44.105Z,12.77
2023-05-09T00:19:06.511Z,12.77
2023-05-09T00:19:41.723Z,12.77
2023-05-09T00:20:14.307Z,12.77
2023-05-09T00:20:45.780Z,12.77
2023-05-09T00:21:14.892Z,12.77
2023-05-09T00:21:48.703Z,12.77
2023-05-09T00:22:21.420Z,12.77
2023-05-09T00:22:44.115Z,12.77
2023-05-09T00:23:06.493Z,12.77
2023-05-09T00:23:41.398Z,12.77
2023-05-09T00:24:14.102Z,12.77
2023-05-09T00:24:46.734Z,12.77
2023-05-09T00:25:18.259Z,12.77
2023-05-09T00:25:41.320Z,13.00
2023-05-09T00:26:03.826Z,12.77
2023-05-09T00:26:38.033Z,12.77
2023-05-09T00:27:12.920Z,13.00
2023-05-09T00:27:35.442Z,12.77
2023-05-09T00:28:13.574Z,12.88
2023-05-09T00:28:45.714Z,12.88
2023-05-09T00:29:17.456Z,12.88
2023-05-09T00:29:54.800Z,12.88
2023-05-09T00:30:17.969Z,12.88
2023-05-09T00:30:40.938Z,12.88
2023-05-09T00:31:03.805Z,12.88
2023-05-09T00:31:42.851Z,12.88
2023-05-09T00:32:16.862Z,12.88
2023-05-09T00:32:39.279Z,12.88
2023-05-09T00:33:15.132Z,12.77
2023-05-09T00:33:46.658Z,12.77
2023-05-09T00:34:21.639Z,12.77
2023-05-09T00:34:44.471Z,12.77
2023-05-09T00:35:06.749Z,12.77
2023-05-09T00:35:41.357Z,12.77
2023-05-09T00:36:13.260Z,12.77
2023-05-09T00:36:45.235Z,12.77
2023-05-09T00:37:16.576Z,12.77
2023-05-09T00:37:46.519Z,12.77
2023-05-09T00:38:21.389Z,12.77
2023-05-09T00:38:44.087Z,12.77
2023-05-09T00:39:06.466Z,12.77
2023-05-09T00:39:41.557Z,12.77
2023-05-09T00:40:16.763Z,12.77
2023-05-09T00:40:45.254Z,12.77
2023-05-09T00:41:18.527Z,12.77
2023-05-09T00:41:46.657Z,12.77
2023-05-09T00:42:21.467Z,12.77
2023-05-09T00:42:44.237Z,12.77
2023-05-09T00:43:06.658Z,12.77
2023-05-09T00:43:41.448Z,12.77
2023-05-09T00:44:13.357Z,12.77
2023-05-09T00:44:45.381Z,12.77
2023-05-09T00:45:15.597Z,12.77
2023-05-09T00:45:49.928Z,12.77
2023-05-09T00:46:21.481Z,12.77
2023-05-09T00:46:44.536Z,12.77
2023-05-09T00:47:06.929Z,12.77
2023-05-09T00:47:41.412Z,12.77
2023-05-09T00:48:13.356Z,12.77
2023-05-09T00:48:45.403Z,12.77
2023-05-09T00:49:17.664Z,12.77
2023-05-09T00:49:46.521Z,12.77
2023-05-09T00:50:21.665Z,12.77
2023-05-09T00:50:44.155Z,12.77
2023-05-09T00:51:08.981Z,12.77
2023-05-09T00:51:41.489Z,12.77
2023-05-09T00:52:13.508Z,12.77
2023-05-09T00:52:45.240Z,12.77
2023-05-09T00:53:14.900Z,12.72
2023-05-09T00:53:49.363Z,12.72
2023-05-09T00:54:21.415Z,12.72
2023-05-09T00:54:44.185Z,12.72
2023-05-09T00:55:06.734Z,12.72
2023-05-09T00:55:41.246Z,12.72
2023-05-09T00:56:13.384Z,12.72
2023-05-09T00:56:45.400Z,12.72
2023-05-09T00:57:15.148Z,12.72
2023-05-09T00:57:49.565Z,12.72
2023-05-09T00:58:23.140Z,12.72
2023-05-09T00:58:44.435Z,12.61
2023-05-09T00:59:07.074Z,12.61
2023-05-09T00:59:41.663Z,12.61
2023-05-09T01:00:14.003Z,12.61
2023-05-09T01:00:46.907Z,12.61
2023-05-09T01:01:15.029Z,12.61
2023-05-09T01:01:46.920Z,12.61
2023-05-09T01:02:24.610Z,12.61
2023-05-09T01:02:45.768Z,12.61
2023-05-09T01:03:08.824Z,12.61
2023-05-09T01:03:42.202Z,12.61
2023-05-09T01:04:14.821Z,12.61
2023-05-09T01:04:45.523Z,12.50
2023-05-09T01:05:17.199Z,12.50
2023-05-09T01:05:50.429Z,12.50
2023-05-09T01:06:22.629Z,12.50
2023-05-09T01:06:45.461Z,12.50
2023-05-09T01:07:08.473Z,12.50
2023-05-09T01:07:41.717Z,12.50
2023-05-09T01:08:13.593Z,12.50
2023-05-09T01:08:46.519Z,12.50
2023-05-09T01:09:17.488Z,12.50
2023-05-09T01:09:49.900Z,12.50
2023-05-09T01:10:21.954Z,12.38
2023-05-09T01:10:44.760Z,12.38
2023-05-09T01:11:12.763Z,12.38
2023-05-09T01:11:41.608Z,12.38
2023-05-09T01:12:14.038Z,12.38
2023-05-09T01:12:46.058Z,12.38
2023-05-09T01:13:16.763Z,12.38
2023-05-09T01:13:50.958Z,12.38
2023-05-09T01:14:22.524Z,12.38
2023-05-09T01:14:44.852Z,12.38
2023-05-09T01:15:07.653Z,12.38
2023-05-09T01:15:41.521Z,12.38
2023-05-09T01:16:13.801Z,12.27
2023-05-09T01:16:45.594Z,12.27
2023-05-09T01:17:15.078Z,12.27
2023-05-09T01:17:49.802Z,12.27
2023-05-09T01:18:21.517Z,12.27
2023-05-09T01:18:44.003Z,12.27
2023-05-09T01:19:06.633Z,12.22
2023-05-09T01:19:41.933Z,12.22
2023-05-09T01:20:13.487Z,12.22
2023-05-09T01:20:45.890Z,12.22
2023-05-09T01:21:17.580Z,12.22
2023-05-09T01:21:49.425Z,12.22
2023-05-09T01:22:21.512Z,12.22
2023-05-09T01:22:44.334Z,12.22
2023-05-09T01:23:06.615Z,12.22
2023-05-09T01:23:41.435Z,12.22
2023-05-09T01:24:13.483Z,12.22
2023-05-09T01:24:45.249Z,12.22
2023-05-09T01:25:15.702Z,12.22
2023-05-09T01:25:51.228Z,12.22
2023-05-09T01:26:21.522Z,12.22
2023-05-09T01:26:44.129Z,12.00
2023-05-09T01:27:06.637Z,12.00
2023-05-09T01:27:41.227Z,12.22
2023-05-09T01:28:13.405Z,12.00
2023-05-09T01:28:45.851Z,12.00
2023-05-09T01:29:15.228Z,12.00
2023-05-09T01:29:49.307Z,12.00
2023-05-09T01:30:22.449Z,11.88
2023-05-09T01:30:45.269Z,11.88
2023-05-09T01:31:07.740Z,11.88
2023-05-09T01:31:42.643Z,11.88
2023-05-09T01:32:13.342Z,11.88
2023-05-09T01:32:45.509Z,11.88
2023-05-09T01:33:15.156Z,11.88
2023-05-09T01:33:49.321Z,11.77
2023-05-09T01:34:21.314Z,11.77
2023-05-09T01:34:44.063Z,11.77
2023-05-09T01:35:07.010Z,11.77
2023-05-09T01:35:42.238Z,11.77
2023-05-09T01:36:13.338Z,11.77
2023-05-09T01:36:45.261Z,11.77
2023-05-09T01:37:15.368Z,11.77
2023-05-09T01:37:49.493Z,11.77
2023-05-09T01:38:22.068Z,11.77
2023-05-09T01:38:44.802Z,11.77
2023-05-09T01:39:07.216Z,11.77
2023-05-09T01:39:41.388Z,11.72
2023-05-09T01:40:13.580Z,11.72
2023-05-09T01:40:45.609Z,11.72
2023-05-09T01:41:15.050Z,11.72
2023-05-09T01:41:49.320Z,11.61
2023-05-09T01:42:21.261Z,11.61
2023-05-09T01:42:44.057Z,11.61
2023-05-09T01:43:06.439Z,11.61
2023-05-09T01:43:41.488Z,11.61
2023-05-09T01:44:13.524Z,11.61
2023-05-09T01:44:45.467Z,11.77
2023-05-09T01:45:15.584Z,11.77
2023-05-09T01:45:46.631Z,11.77
2023-05-09T01:46:22.522Z,11.77
2023-05-09T01:46:44.875Z,11.77
2023-05-09T01:47:07.685Z,11.77
2023-05-09T01:47:42.013Z,11.88
2023-05-09T01:48:13.283Z,11.88
2023-05-09T01:48:48.129Z,11.72
2023-05-09T01:49:36.614Z,11.72
2023-05-09T01:49:56.816Z,11.72
2023-05-09T01:50:19.496Z,11.72
2023-05-09T01:50:42.045Z,11.72
2023-05-09T01:51:04.850Z,11.72
2023-05-09T01:51:43.680Z,11.72
2023-05-09T01:52:14.260Z,11.72
2023-05-09T01:52:49.984Z,11.72
2023-05-09T01:53:11.262Z,11.72
2023-05-09T01:53:49.622Z,11.72
2023-05-09T01:54:22.942Z,11.72
2023-05-09T01:54:44.222Z,11.72
2023-05-09T01:55:06.595Z,11.72
2023-05-09T01:55:41.281Z,11.61
2023-05-09T01:56:13.215Z,11.61
2023-05-09T01:56:45.458Z,11.61
2023-05-09T01:57:20.847Z,11.61
2023-05-09T01:57:50.687Z,11.50
2023-05-09T01:58:23.013Z,11.50
2023-05-09T01:58:46.327Z,11.50
2023-05-09T01:59:09.238Z,11.50
2023-05-09T01:59:41.235Z,11.50
2023-05-09T02:00:13.815Z,11.50
2023-05-09T02:00:45.489Z,11.50
2023-05-09T02:01:15.458Z,11.50
2023-05-09T02:01:49.414Z,11.50
2023-05-09T02:02:16.139Z,11.50
2023-05-09T02:02:48.209Z,11.50
2023-05-09T02:03:26.082Z,11.50
2023-05-09T02:03:54.622Z,11.50
2023-05-09T02:04:15.399Z,11.50
2023-05-09T02:04:45.815Z,11.38
2023-05-09T02:05:15.662Z,11.38
2023-05-09T02:05:50.492Z,11.50
2023-05-09T02:06:21.563Z,11.50
2023-05-09T02:06:44.095Z,11.50
2023-05-09T02:07:07.049Z,11.38
2023-05-09T02:07:41.610Z,11.38
2023-05-09T02:08:13.805Z,11.38
2023-05-09T02:08:45.385Z,11.38
2023-05-09T02:09:15.292Z,11.38
2023-05-09T02:09:50.984Z,11.38
2023-05-09T02:10:21.329Z,11.38
2023-05-09T02:10:43.924Z,11.38
2023-05-09T02:11:06.874Z,11.38
2023-05-09T02:11:42.489Z,11.38
2023-05-09T02:12:13.975Z,11.38
2023-05-09T02:12:46.009Z,11.38
2023-05-09T02:13:17.574Z,11.38
2023-05-09T02:13:49.274Z,11.38
2023-05-09T02:14:21.326Z,11.38
2023-05-09T02:14:44.014Z,11.38
2023-05-09T02:15:07.643Z,11.38
2023-05-09T02:15:41.307Z,11.38
2023-05-09T02:16:13.453Z,11.38
2023-05-09T02:16:47.056Z,11.38
2023-05-09T02:17:17.429Z,11.27
2023-05-09T02:17:49.512Z,11.27
2023-05-09T02:18:21.885Z,11.27
2023-05-09T02:18:44.659Z,11.27
2023-05-09T02:19:07.797Z,11.27
2023-05-09T02:19:41.272Z,11.27
2023-05-09T02:20:13.415Z,11.27
2023-05-09T02:20:45.479Z,11.27
2023-05-09T02:21:15.072Z,11.27
2023-05-09T02:21:51.602Z,11.27
2023-05-09T02:22:21.509Z,11.27
2023-05-09T02:22:44.067Z,11.27
2023-05-09T02:23:08.175Z,11.27
2023-05-09T02:23:43.715Z,11.22
2023-05-09T02:24:14.092Z,11.22
2023-05-09T02:24:47.902Z,11.22
2023-05-09T02:25:15.801Z,11.22
2023-05-09T02:25:49.442Z,11.22
2023-05-09T02:26:21.434Z,11.22
2023-05-09T02:26:44.024Z,11.22
2023-05-09T02:27:08.815Z,11.22
2023-05-09T02:27:41.353Z,11.22
2023-05-09T02:28:13.319Z,11.22
2023-05-09T02:28:45.440Z,11.22
2023-05-09T02:29:15.132Z,11.22
2023-05-09T02:29:49.357Z,11.22
2023-05-09T02:30:22.122Z,11.22
2023-05-09T02:30:44.774Z,11.22
2023-05-09T02:31:09.302Z,11.22
2023-05-09T02:31:41.526Z,11.00
2023-05-09T02:32:14.031Z,11.00
2023-05-09T02:32:46.219Z,11.00
2023-05-09T02:33:15.364Z,11.00
2023-05-09T02:33:49.251Z,11.00
2023-05-09T02:34:21.357Z,11.00
2023-05-09T02:34:44.043Z,11.00
2023-05-09T02:35:06.811Z,11.00
2023-05-09T02:35:41.734Z,11.00
2023-05-09T02:36:13.278Z,11.00
2023-05-09T02:36:48.007Z,10.88
2023-05-09T02:37:17.946Z,10.88
2023-05-09T02:37:49.735Z,10.88
2023-05-09T02:38:21.542Z,10.77
2023-05-09T02:38:44.255Z,10.77
2023-05-09T02:39:07.241Z,11.00
2023-05-09T02:39:41.595Z,11.00
2023-05-09T02:40:13.524Z,11.00
2023-05-09T02:40:45.307Z,11.00
2023-05-09T02:41:15.449Z,10.88
2023-05-09T02:41:49.364Z,10.88
2023-05-09T02:42:21.373Z,10.88
2023-05-09T02:42:44.091Z,10.88
2023-05-09T02:43:06.552Z,10.88
2023-05-09T02:43:41.377Z,10.88
2023-05-09T02:44:13.406Z,10.88
2023-05-09T02:44:48.145Z,10.77
2023-05-09T02:45:17.854Z,10.77
2023-05-09T02:45:50.967Z,10.77
2023-05-09T02:46:21.287Z,10.77
2023-05-09T02:46:44.052Z,10.77
2023-05-09T02:47:07.979Z,10.77
2023-05-09T02:47:41.555Z,10.77
2023-05-09T02:48:13.743Z,10.77
2023-05-09T02:48:45.285Z,10.77
2023-05-09T02:49:31.504Z,10.77
2023-05-09T02:49:49.770Z,10.77
2023-05-09T02:50:22.188Z,10.77
2023-05-09T02:50:44.961Z,10.77
2023-05-09T02:51:09.956Z,10.77
2023-05-09T02:51:41.972Z,10.77
2023-05-09T02:52:13.786Z,10.77
2023-05-09T02:52:45.592Z,10.77
2023-05-09T02:53:15.462Z,10.77
2023-05-09T02:53:49.644Z,10.77
2023-05-09T02:54:21.461Z,10.77
2023-05-09T02:54:43.969Z,10.77
2023-05-09T02:55:09.083Z,10.77
2023-05-09T02:55:41.382Z,10.77
2023-05-09T02:56:13.901Z,10.77
2023-05-09T02:56:45.939Z,10.77
2023-05-09T02:57:26.192Z,10.77
2023-05-09T02:58:05.350Z,10.77
2023-05-09T02:58:22.012Z,10.77
2023-05-09T02:58:44.724Z,10.77
2023-05-09T02:59:13.100Z,10.77
2023-05-09T02:59:41.910Z,10.77
2023-05-09T03:00:18.476Z,10.77
2023-05-09T03:00:46.049Z,10.77
2023-05-09T03:01:18.151Z,10.77
2023-05-09T03:01:50.201Z,10.88
2023-05-09T03:02:21.530Z,10.88
2023-05-09T03:02:44.068Z,10.88
2023-05-09T03:03:07.263Z,10.88
2023-05-09T03:03:43.370Z,10.88
2023-05-09T03:04:14.159Z,10.72
2023-05-09T03:04:46.074Z,10.72
2023-05-09T03:05:16.204Z,10.72
2023-05-09T03:05:49.378Z,10.72
2023-05-09T03:06:21.645Z,10.72
2023-05-09T03:06:44.300Z,10.72
2023-05-09T03:07:08.319Z,10.72
2023-05-09T03:07:42.307Z,10.72
2023-05-09T03:08:14.679Z,10.72
2023-05-09T03:08:45.739Z,10.72
2023-05-09T03:09:16.977Z,10.72
2023-05-09T03:09:49.452Z,10.72
2023-05-09T03:10:21.213Z,10.72
2023-05-09T03:10:43.929Z,10.72
2023-05-09T03:11:09.838Z,10.72
2023-05-09T03:11:41.861Z,10.72
2023-05-09T03:12:16.604Z,10.72
2023-05-09T03:12:45.602Z,10.72
2023-05-09T03:13:16.243Z,10.72
2023-05-09T03:13:50.848Z,10.72
2023-05-09T03:14:21.744Z,10.72
2023-05-09T03:14:44.441Z,10.72
2023-05-09T03:15:07.184Z,10.50
2023-05-09T03:15:42.925Z,10.50
2023-05-09T03:16:13.405Z,10.50
2023-05-09T03:16:45.322Z,10.50
2023-05-09T03:17:16.372Z,10.50
2023-05-09T03:17:50.205Z,10.50
2023-05-09T03:18:21.437Z,10.50
2023-05-09T03:18:44.136Z,10.50
2023-05-09T03:19:06.406Z,10.50
2023-05-09T03:19:41.372Z,10.50
2023-05-09T03:20:13.323Z,10.50
2023-05-09T03:20:45.240Z,10.50
2023-05-09T03:21:17.212Z,10.50
2023-05-09T03:21:49.197Z,10.50
2023-05-09T03:22:21.646Z,10.50
2023-05-09T03:22:44.743Z,10.50
2023-05-09T03:23:07.311Z,10.50
2023-05-09T03:23:41.760Z,10.50
2023-05-09T03:24:13.234Z,10.50
2023-05-09T03:24:46.247Z,10.50
2023-05-09T03:25:18.731Z,10.50
2023-05-09T03:25:49.695Z,10.50
2023-05-09T03:26:21.239Z,10.50
2023-05-09T03:26:43.961Z,10.50
2023-05-09T03:27:06.610Z,10.50
2023-05-09T03:27:41.283Z,10.50
2023-05-09T03:28:13.428Z,10.50
2023-05-09T03:28:45.274Z,10.38
2023-05-09T03:29:15.605Z,10.38
2023-05-09T03:29:49.459Z,10.38
2023-05-09T03:30:22.171Z,10.38
2023-05-09T03:30:44.729Z,10.38
2023-05-09T03:31:07.227Z,10.50
2023-05-09T03:31:41.786Z,10.50
2023-05-09T03:32:16.965Z,10.50
2023-05-09T03:32:45.762Z,10.50
2023-05-09T03:33:15.508Z,10.50
2023-05-09T03:33:49.885Z,10.50
2023-05-09T03:34:21.241Z,10.50
2023-05-09T03:34:43.923Z,10.50
2023-05-09T03:35:06.309Z,10.50
2023-05-09T03:35:41.333Z,10.50
2023-05-09T03:36:13.264Z,10.50
2023-05-09T03:36:45.237Z,10.50
2023-05-09T03:37:15.774Z,10.50
2023-05-09T03:37:49.296Z,10.50
2023-05-09T03:38:21.265Z,10.50
2023-05-09T03:38:44.013Z,10.61
2023-05-09T03:39:06.444Z,10.61
2023-05-09T03:39:41.830Z,10.61
2023-05-09T03:40:13.629Z,10.61
2023-05-09T03:40:46.273Z,10.61
2023-05-09T03:41:17.282Z,10.61
2023-05-09T03:41:49.366Z,10.61
2023-05-09T03:42:21.522Z,10.61
2023-05-09T03:42:44.078Z,10.61
2023-05-09T03:43:06.507Z,10.61
2023-05-09T03:43:41.425Z,10.61
2023-05-09T03:44:14.161Z,10.61
2023-05-09T03:44:45.668Z,10.61
2023-05-09T03:45:15.725Z,10.61
2023-05-09T03:45:50.820Z,10.61
2023-05-09T03:46:22.126Z,10.61
2023-05-09T03:46:47.268Z,10.61
2023-05-09T03:47:10.257Z,10.61
2023-05-09T03:47:41.895Z,10.61
2023-05-09T03:48:13.706Z,10.61
2023-05-09T03:48:45.373Z,10.61
2023-05-09T03:49:15.928Z,10.61
2023-05-09T03:49:50.022Z,10.61
2023-05-09T03:50:22.493Z,10.61
2023-05-09T03:50:45.143Z,10.61
2023-05-09T03:51:07.156Z,10.61
2023-05-09T03:51:42.359Z,10.61
2023-05-09T03:52:15.157Z,10.61
2023-05-09T03:52:45.267Z,10.61
2023-05-09T03:53:15.326Z,10.61
2023-05-09T03:53:49.720Z,10.77
2023-05-09T03:54:23.245Z,10.77
2023-05-09T03:54:46.101Z,10.77
2023-05-09T03:55:08.914Z,10.77
2023-05-09T03:55:43.157Z,10.77
2023-05-09T03:56:13.893Z,10.77
2023-05-09T03:56:45.618Z,10.77
2023-05-09T03:57:15.257Z,10.77
2023-05-09T03:57:49.953Z,10.77
2023-05-09T03:58:27.253Z,10.77
2023-05-09T03:58:44.455Z,10.77
2023-05-09T03:59:10.745Z,10.77
2023-05-09T03:59:41.536Z,10.77
2023-05-09T04:00:15.432Z,10.77
2023-05-09T04:00:46.943Z,10.77
2023-05-09T04:01:16.021Z,10.77
2023-05-09T04:01:49.288Z,10.77
2023-05-09T04:02:24.783Z,10.77
2023-05-09T04:02:44.138Z,10.77
2023-05-09T04:03:06.650Z,10.77
2023-05-09T04:03:42.044Z,10.77
2023-05-09T04:04:15.243Z,10.77
2023-05-09T04:04:45.465Z,10.77
2023-05-09T04:05:15.904Z,10.77
2023-05-09T04:05:55.030Z,10.77
2023-05-09T04:06:21.882Z,10.77
2023-05-09T04:06:44.569Z,10.77
2023-05-09T04:07:09.831Z,10.77
2023-05-09T04:07:41.629Z,10.77
2023-05-09T04:08:13.726Z,10.77
2023-05-09T04:08:45.353Z,10.77
2023-05-09T04:09:16.095Z,10.77
2023-05-09T04:09:50.377Z,10.77
2023-05-09T04:10:21.666Z,10.77
2023-05-09T04:10:44.453Z,10.77
2023-05-09T04:11:07.358Z,10.77
2023-05-09T04:11:41.674Z,10.77
2023-05-09T04:12:14.032Z,10.77
2023-05-09T04:12:48.562Z,10.72
2023-05-09T04:13:11.533Z,10.72
2023-05-09T04:13:53.297Z,10.72
2023-05-09T04:14:21.147Z,10.72
2023-05-09T04:14:45.136Z,10.72
2023-05-09T04:15:06.487Z,10.72
2023-05-09T04:15:41.308Z,10.72
2023-05-09T04:16:13.225Z,10.72
2023-05-09T04:16:45.280Z,10.72
2023-05-09T04:17:15.044Z,10.72
2023-05-09T04:17:49.254Z,10.72
2023-05-09T04:18:21.237Z,10.72
2023-05-09T04:18:44.174Z,10.72
2023-05-09T04:19:06.441Z,10.72
2023-05-09T04:19:41.299Z,10.72
2023-05-09T04:20:13.166Z,10.72
2023-05-09T04:20:45.228Z,10.72
2023-05-09T04:21:15.014Z,10.88
2023-05-09T04:21:49.163Z,10.88
2023-05-09T04:22:21.264Z,10.88
2023-05-09T04:22:46.164Z,10.88
2023-05-09T04:23:06.447Z,10.88
2023-05-09T04:23:41.530Z,10.88
2023-05-09T04:24:13.244Z,10.88
2023-05-09T04:24:45.411Z,10.88
2023-05-09T04:25:15.885Z,10.88
2023-05-09T04:25:49.303Z,10.88
2023-05-09T04:26:21.339Z,10.88
2023-05-09T04:26:44.344Z,10.88
2023-05-09T04:27:07.138Z,10.88
2023-05-09T04:27:42.670Z,10.88
2023-05-09T04:28:07.003Z,10.88
2023-05-09T04:28:46.080Z,10.77
2023-05-09T04:29:15.321Z,10.88
2023-05-09T04:29:49.298Z,10.88
2023-05-09T04:30:23.265Z,10.88
2023-05-09T04:30:43.968Z,10.88
2023-05-09T04:31:06.517Z,10.88
2023-05-09T04:31:42.882Z,10.88
2023-05-09T04:32:15.386Z,10.88
2023-05-09T04:32:49.793Z,10.88
2023-05-09T04:33:15.436Z,10.88
2023-05-09T04:33:50.453Z,10.88
2023-05-09T04:34:21.599Z,10.88
2023-05-09T04:34:44.037Z,10.88
2023-05-09T04:35:06.823Z,11.00
2023-05-09T04:35:43.016Z,11.00
2023-05-09T04:36:13.541Z,11.00
2023-05-09T04:36:45.224Z,11.11
2023-05-09T04:37:15.609Z,11.11
2023-05-09T04:37:49.772Z,11.11
2023-05-09T04:38:21.407Z,11.22
2023-05-09T04:38:44.202Z,11.22
2023-05-09T04:39:06.676Z,11.11
2023-05-09T04:39:42.190Z,11.11
2023-05-09T04:40:13.401Z,11.11
2023-05-09T04:40:46.477Z,11.11
2023-05-09T04:41:17.759Z,11.22
2023-05-09T04:41:49.249Z,11.22
2023-05-09T04:42:21.542Z,11.22
2023-05-09T04:42:44.172Z,11.22
2023-05-09T04:43:07.516Z,11.22
2023-05-09T04:43:41.221Z,11.22
2023-05-09T04:44:14.759Z,11.22
2023-05-09T04:44:46.071Z,11.27
2023-05-09T04:45:15.842Z,11.27
2023-05-09T04:45:50.788Z,11.27
2023-05-09T04:46:24.264Z,11.27
2023-05-09T04:46:44.344Z,11.27
2023-05-09T04:47:06.729Z,11.27
2023-05-09T04:47:41.362Z,11.27
2023-05-09T04:48:13.069Z,11.27
2023-05-09T04:48:45.341Z,11.27
2023-05-09T04:49:16.438Z,11.27
2023-05-09T04:49:52.386Z,11.38
2023-05-09T04:50:21.727Z,11.38
2023-05-09T04:50:44.237Z,11.38
2023-05-09T04:51:07.071Z,11.38
2023-05-09T04:51:41.964Z,11.38
2023-05-09T04:52:14.458Z,11.38
2023-05-09T04:52:45.114Z,11.38
2023-05-09T04:53:15.641Z,11.38
2023-05-09T04:53:49.458Z,11.38
2023-05-09T04:54:22.399Z,11.38
2023-05-09T04:54:45.428Z,11.38
2023-05-09T04:55:09.113Z,11.38
2023-05-09T04:55:41.931Z,11.50
2023-05-09T04:56:13.276Z,11.50
2023-05-09T04:56:45.343Z,11.50
2023-05-09T04:57:18.499Z,11.50
2023-05-09T04:57:51.345Z,11.61
2023-05-09T04:58:22.470Z,11.61
2023-05-09T04:58:46.637Z,11.61
2023-05-09T04:59:08.805Z,11.61
2023-05-09T04:59:42.055Z,11.61
2023-05-09T05:00:14.824Z,11.72
2023-05-09T05:00:45.885Z,11.72
2023-05-09T05:01:15.384Z,11.72
2023-05-09T05:01:56.823Z,11.72
2023-05-09T05:02:21.715Z,11.72
2023-05-09T05:02:45.340Z,11.72
2023-05-09T05:03:08.813Z,11.77
2023-05-09T05:03:53.451Z,11.77
2023-05-09T05:04:13.802Z,11.77
2023-05-09T05:04:45.272Z,11.77
2023-05-09T05:05:15.034Z,11.77
2023-05-09T05:05:51.078Z,11.88
2023-05-09T05:06:21.717Z,11.88
2023-05-09T05:06:45.830Z,11.88
2023-05-09T05:07:10.251Z,11.88
2023-05-09T05:07:43.305Z,11.88
2023-05-09T05:08:13.228Z,11.88
2023-05-09T05:08:45.142Z,11.88
2023-05-09T05:09:15.168Z,12.00
2023-05-09T05:09:49.165Z,12.00
2023-05-09T05:10:21.222Z,12.00
2023-05-09T05:10:45.274Z,12.00
2023-05-09T05:11:08.061Z,12.11
2023-05-09T05:11:50.138Z,12.11
2023-05-09T05:12:15.442Z,12.11
2023-05-09T05:12:47.803Z,12.11
2023-05-09T05:13:16.516Z,12.22
2023-05-09T05:13:49.157Z,12.22
2023-05-09T05:14:21.166Z,12.22
2023-05-09T05:14:43.977Z,12.22
2023-05-09T05:15:06.818Z,12.22
2023-05-09T05:15:41.151Z,12.27
2023-05-09T05:16:13.216Z,12.27
2023-05-09T05:16:46.743Z,12.27
2023-05-09T05:17:15.160Z,12.27
2023-05-09T05:17:49.331Z,12.27
2023-05-09T05:18:22.118Z,12.27
2023-05-09T05:18:43.883Z,12.27
2023-05-09T05:19:06.282Z,12.38
2023-05-09T05:19:41.182Z,12.38
2023-05-09T05:20:13.104Z,12.38
2023-05-09T05:20:45.303Z,12.50
2023-05-09T05:21:15.191Z,12.50
2023-05-09T05:21:49.097Z,12.27
2023-05-09T05:22:21.112Z,12.61
2023-05-09T05:22:43.743Z,12.38
2023-05-09T05:23:06.198Z,12.38
2023-05-09T05:23:41.125Z,12.38
2023-05-09T05:24:13.362Z,12.38
2023-05-09T05:24:45.644Z,12.38
2023-05-09T05:25:17.732Z,12.38
2023-05-09T05:25:49.274Z,12.38
2023-05-09T05:26:21.467Z,12.38
2023-05-09T05:26:44.829Z,12.50
2023-05-09T05:27:07.268Z,12.50
2023-05-09T05:27:41.086Z,12.50
2023-05-09T05:28:13.547Z,12.61
2023-05-09T05:28:45.186Z,12.61
2023-05-09T05:29:15.151Z,12.61
2023-05-09T05:29:49.332Z,12.72
2023-05-09T05:30:23.673Z,12.72
2023-05-09T05:30:43.594Z,12.72
2023-05-09T05:31:05.908Z,12.72
2023-05-09T05:31:41.448Z,12.50
2023-05-09T05:32:13.221Z,12.61
2023-05-09T05:32:45.303Z,12.61
2023-05-09T05:33:17.118Z,12.61
2023-05-09T05:33:49.233Z,12.72
2023-05-09T05:34:21.159Z,12.72
2023-05-09T05:34:44.056Z,12.72
2023-05-09T05:35:10.880Z,12.72
2023-05-09T05:35:41.048Z,12.72
2023-05-09T05:36:13.590Z,12.77
2023-05-09T05:36:45.405Z,12.77
2023-05-09T05:37:15.161Z,12.88
2023-05-09T05:37:49.250Z,12.88
2023-05-09T05:38:21.202Z,12.88
2023-05-09T05:38:43.881Z,12.88
2023-05-09T05:39:06.735Z,12.88
2023-05-09T05:39:41.058Z,12.72
2023-05-09T05:40:13.458Z,12.88
2023-05-09T05:40:45.056Z,12.88
2023-05-09T05:41:15.039Z,12.88
2023-05-09T05:41:49.328Z,12.77
2023-05-09T05:42:21.145Z,12.77
2023-05-09T05:42:45.867Z,12.77
2023-05-09T05:43:08.299Z,12.77
2023-05-09T05:43:41.286Z,12.77
2023-05-09T05:44:13.104Z,12.77
2023-05-09T05:44:45.266Z,12.77
2023-05-09T05:45:15.394Z,12.88
2023-05-09T05:45:49.239Z,12.88
2023-05-09T05:46:21.330Z,13.00
2023-05-09T05:46:44.054Z,13.00
2023-05-09T05:47:06.838Z,13.00
2023-05-09T05:47:41.204Z,13.00
2023-05-09T05:48:13.111Z,13.00
2023-05-09T05:48:45.534Z,13.00
2023-05-09T05:49:15.133Z,13.00
2023-05-09T05:49:49.353Z,13.00
2023-05-09T05:50:21.146Z,13.00
2023-05-09T05:50:50.101Z,13.00
2023-05-09T05:51:30.448Z,13.11
2023-05-09T05:51:52.944Z,13.11
2023-05-09T05:52:29.241Z,13.11
2023-05-09T05:52:57.367Z,13.11
2023-05-09T05:53:14.583Z,13.11
2023-05-09T05:53:50.627Z,13.11
2023-05-09T05:54:21.450Z,13.22
2023-05-09T05:54:45.018Z,13.22
2023-05-09T05:55:07.497Z,13.22
2023-05-09T05:55:44.701Z,13.22
2023-05-09T05:56:13.355Z,13.22
2023-05-09T05:56:45.207Z,13.22
2023-05-09T05:57:15.490Z,13.22
2023-05-09T05:57:49.342Z,13.11
2023-05-09T05:58:21.173Z,13.11
2023-05-09T05:58:43.904Z,13.11
2023-05-09T05:59:06.763Z,13.11
2023-05-09T05:59:43.835Z,13.11
2023-05-09T06:00:13.626Z,13.11
2023-05-09T06:00:41.323Z,13.00
2023-05-09T06:01:15.666Z,13.11
2023-05-09T06:01:49.915Z,13.11
2023-05-09T06:02:23.288Z,13.11
2023-05-09T06:02:45.796Z,13.22
2023-05-09T06:03:08.259Z,13.27
2023-05-09T06:03:41.846Z,13.27
2023-05-09T06:04:13.569Z,13.27
2023-05-09T06:04:47.788Z,13.27
2023-05-09T06:05:15.889Z,13.27
2023-05-09T06:05:49.417Z,13.22
2023-05-09T06:06:25.032Z,13.27
2023-05-09T06:06:54.046Z,13.27
2023-05-09T06:07:25.602Z,13.27
2023-05-09T06:07:52.868Z,13.27
2023-05-09T06:08:12.101Z,13.27
2023-05-09T06:08:47.216Z,13.27
2023-05-09T06:09:17.466Z,13.27
2023-05-09T06:09:52.484Z,13.38
2023-05-09T06:10:15.143Z,13.27
2023-05-09T06:10:46.864Z,13.38
2023-05-09T06:11:25.552Z,13.38
2023-05-09T06:11:47.787Z,13.38
2023-05-09T06:12:11.030Z,13.50
2023-05-09T06:12:48.485Z,13.50
2023-05-09T06:13:18.685Z,13.50
2023-05-09T06:13:50.731Z,13.72
2023-05-09T06:14:21.892Z,13.61
2023-05-09T06:14:44.524Z,13.61
2023-05-09T06:15:09.086Z,13.61
2023-05-09T06:15:43.434Z,13.61
2023-05-09T06:16:19.158Z,13.38
2023-05-09T06:16:45.470Z,13.38
2023-05-09T06:17:15.805Z,13.38
2023-05-09T06:17:50.253Z,13.38
2023-05-09T06:18:21.252Z,13.50
2023-05-09T06:18:44.175Z,13.50
2023-05-09T06:19:06.430Z,13.77
2023-05-09T06:19:47.816Z,13.61
2023-05-09T06:20:14.215Z,13.61
2023-05-09T06:20:45.337Z,13.61
2023-05-09T06:21:15.164Z,13.61
2023-05-09T06:21:49.953Z,13.72
2023-05-09T06:22:21.830Z,13.72
2023-05-09T06:22:45.167Z,13.72
2023-05-09T06:23:07.733Z,13.72
2023-05-09T06:23:51.056Z,13.72
2023-05-09T06:24:23.364Z,13.61
2023-05-09T06:24:45.500Z,13.61
2023-05-09T06:25:15.635Z,13.61
2023-05-09T06:25:50.151Z,13.61
2023-05-09T06:26:21.256Z,13.72